Time;durP1;ratioP1;P1;durP2;ratioP2;P2;SDS_P1;SDS_P2;PMS_P1;PMS_P2;Temp;Humidity;BMP_temperature;BMP_pressure;BME280_temperature;BME280_humidity;BME280_pressure;Samples;Min_cycle;Max_cycle;Signal;HPM_P1;HPM_P2
2022/12/24 00:01:03;;;;;;;0.30;0.30;;;10.40;1.00;;;;;;5088959;28;20209;-67
2022/12/24 00:03:31;;;;;;;0.40;0.40;;;10.40;1.00;;;;;;5109115;28;20269;-68
2022/12/24 00:06:02;;;;;;;0.40;0.40;;;10.40;1.00;;;;;;5110238;28;20698;-67
2022/12/24 00:08:29;;;;;;;0.33;0.33;;;10.40;1.00;;;;;;5110403;28;20632;-67
2022/12/24 00:10:56;;;;;;;0.30;0.30;;;10.40;1.00;;;;;;5091952;28;20612;-67
2022/12/24 00:13:23;;;;;;;0.40;0.40;;;10.40;1.00;;;;;;5110310;28;20227;-67
2022/12/24 00:15:51;;;;;;;0.30;0.30;;;10.30;1.00;;;;;;5110245;28;20246;-67
2022/12/24 00:18:18;;;;;;;0.40;0.40;;;10.40;1.00;;;;;;5110329;28;20673;-67
2022/12/24 00:20:48;;;;;;;0.40;0.40;;;10.30;1.00;;;;;;5110953;28;20211;-67
2022/12/24 00:23:16;;;;;;;0.40;0.40;;;10.30;1.00;;;;;;5075331;28;20198;-67
2022/12/24 00:25:44;;;;;;;0.40;0.40;;;10.30;1.00;;;;;;5110007;28;20672;-67
2022/12/24 00:28:11;;;;;;;0.40;0.40;;;10.30;1.00;;;;;;5108878;28;20244;-67
2022/12/24 00:30:39;;;;;;;0.40;0.40;;;10.40;1.00;;;;;;5082655;27;20233;-66
2022/12/24 00:33:06;;;;;;;0.40;0.40;;;10.40;1.00;;;;;;5074685;28;20280;-66
2022/12/24 00:35:34;;;;;;;0.40;0.40;;;10.50;99.90;;;;;;5109185;28;20185;-66
2022/12/24 00:38:02;;;;;;;0.40;0.40;;;10.40;99.90;;;;;;5099560;28;20197;-66
2022/12/24 00:40:31;;;;;;;0.40;0.40;;;10.40;99.90;;;;;;5091531;28;20219;-66
2022/12/24 00:42:58;;;;;;;0.40;0.40;;;10.30;1.00;;;;;;5066595;28;20190;-66
2022/12/24 00:45:28;;;;;;;0.40;0.40;;;10.40;99.90;;;;;;5091156;28;20246;-66
2022/12/24 00:47:54;;;;;;;0.40;0.40;;;10.40;99.90;;;;;;5108707;28;20273;-66
2022/12/24 00:50:21;;;;;;;0.40;0.40;;;10.30;1.00;;;;;;5090660;28;20686;-68
2022/12/24 00:52:48;;;;;;;0.40;0.40;;;10.30;1.00;;;;;;5108435;27;20190;-66
2022/12/24 00:55:16;;;;;;;0.40;0.40;;;10.10;1.00;;;;;;5108947;27;20688;-68
2022/12/24 00:57:42;;;;;;;0.40;0.40;;;10.00;1.00;;;;;;5107378;27;20195;-66
2022/12/24 01:00:10;;;;;;;0.40;0.40;;;10.00;1.00;;;;;;5090721;28;20715;-65
2022/12/24 01:02:37;;;;;;;0.40;0.40;;;10.00;1.00;;;;;;5090755;28;20575;-66
2022/12/24 01:05:11;;;;;;;0.40;0.40;;;10.00;1.00;;;;;;5107348;28;21125;-65
2022/12/24 01:07:42;;;;;;;0.40;0.40;;;10.10;1.00;;;;;;5089519;27;20730;-66
2022/12/24 01:10:11;;;;;;;0.40;0.40;;;10.10;1.00;;;;;;5109279;27;20216;-67
2022/12/24 01:12:38;;;;;;;0.30;0.30;;;10.10;99.90;;;;;;5067354;28;20207;-67
2022/12/24 01:15:06;;;;;;;0.40;0.40;;;10.10;99.90;;;;;;5082203;28;20310;-67
2022/12/24 01:17:34;;;;;;;0.30;0.30;;;10.10;99.90;;;;;;5108877;28;20288;-67
2022/12/24 01:20:03;;;;;;;0.40;0.40;;;10.10;99.90;;;;;;5106842;27;20212;-64
2022/12/24 01:22:30;;;;;;;0.40;0.40;;;10.20;99.90;;;;;;5108809;27;20194;-65
2022/12/24 01:24:57;;;;;;;0.40;0.40;;;10.20;99.90;;;;;;5090793;28;20228;-67
2022/12/24 01:27:24;;;;;;;0.40;0.40;;;10.20;99.90;;;;;;5090460;28;20293;-66
2022/12/24 01:29:51;;;;;;;0.40;0.40;;;10.20;99.90;;;;;;5108082;28;20256;-66
2022/12/24 01:32:18;;;;;;;0.40;0.40;;;10.20;99.90;;;;;;5087978;28;20697;-66
2022/12/24 01:34:45;;;;;;;0.40;0.40;;;10.30;99.90;;;;;;5089825;28;20288;-66
2022/12/24 01:37:12;;;;;;;0.40;0.40;;;10.30;99.90;;;;;;5073155;28;20221;-67
2022/12/24 01:39:39;;;;;;;0.40;0.40;;;10.20;99.90;;;;;;5090716;28;20224;-66
2022/12/24 01:45:51;;;;;;;0.40;0.40;;;10.00;99.90;;;;;;5108538;28;20189;-66
2022/12/24 01:48:30;;;;;;;0.40;0.40;;;10.10;99.90;;;;;;5105205;28;20266;-66
2022/12/24 01:51:02;;;;;;;0.40;0.40;;;10.20;99.90;;;;;;5106765;28;20696;-66
2022/12/24 01:53:30;;;;;;;0.40;0.40;;;10.20;99.90;;;;;;5090304;28;20335;-66
2022/12/24 01:55:58;;;;;;;0.40;0.40;;;10.20;96.90;;;;;;5108700;28;20228;-66
2022/12/24 01:58:25;;;;;;;0.40;0.40;;;10.30;87.10;;;;;;5108890;28;20189;-66
2022/12/24 02:00:55;;;;;;;0.40;0.40;;;10.20;89.30;;;;;;5090444;28;20301;-66
2022/12/24 02:03:22;;;;;;;0.40;0.40;;;10.30;56.60;;;;;;5115174;22;20616;-66
2022/12/24 02:05:53;;;;;;;0.40;0.40;;;10.30;57.40;;;;;;5032301;28;20245;-71
2022/12/24 02:08:21;;;;;;;0.20;0.20;;;10.10;56.90;;;;;;5068339;28;20237;-68
2022/12/24 02:10:48;;;;;;;0.40;0.40;;;10.10;50.50;;;;;;5050690;28;20635;-68
2022/12/24 02:13:19;;;;;;;0.40;0.40;;;10.00;47.50;;;;;;5051324;28;20624;-68
2022/12/24 02:16:13;;;;;;;0.40;0.40;;;10.00;35.50;;;;;;5049422;28;20256;-69
2022/12/24 02:18:56;;;;;;;0.40;0.40;;;10.10;37.40;;;;;;5067844;28;20206;-68
2022/12/24 02:21:32;;;;;;;0.40;0.40;;;10.10;31.30;;;;;;5049178;28;20678;-67
2022/12/24 02:24:14;;;;;;;0.40;0.40;;;10.10;40.00;;;;;;5032044;28;20324;-68
2022/12/24 02:27:07;;;;;;;0.40;0.40;;;10.10;36.20;;;;;;5051110;28;20191;-67
2022/12/24 02:29:43;;;;;;;0.40;0.40;;;10.10;40.10;;;;;;5049399;28;20195;-68
2022/12/24 02:32:20;;;;;;;0.40;0.40;;;10.10;40.10;;;;;;5032525;28;20228;-67
2022/12/24 02:35:03;;;;;;;0.40;0.40;;;10.10;29.50;;;;;;5033096;28;20201;-67
2022/12/24 02:37:49;;;;;;;0.30;0.30;;;10.10;46.30;;;;;;5049463;28;20542;-67
2022/12/24 02:40:21;;;;;;;0.40;0.40;;;10.00;55.50;;;;;;5050710;28;20305;-68
2022/12/24 02:42:54;;;;;;;0.30;0.30;;;10.10;51.20;;;;;;5067104;28;20355;-68
2022/12/24 02:45:27;;;;;;;0.40;0.40;;;10.00;62.60;;;;;;5049547;28;20187;-68
2022/12/24 02:47:55;;;;;;;0.40;0.40;;;10.00;70.50;;;;;;5065742;28;20195;-67
2022/12/24 02:50:23;;;;;;;0.40;0.40;;;10.10;67.40;;;;;;5050552;28;20669;-67
2022/12/24 02:52:50;;;;;;;0.40;0.40;;;10.00;82.50;;;;;;5050361;28;20530;-67
2022/12/24 02:55:37;;;;;;;0.40;0.40;;;10.10;64.10;;;;;;5033872;28;20211;-69
2022/12/24 02:58:13;;;;;;;0.40;0.40;;;10.20;52.80;;;;;;5042781;28;20265;-67
2022/12/24 03:01:17;;;;;;;0.40;0.40;;;10.10;57.40;;;;;;5042603;28;20213;-68
2022/12/24 03:04:17;;;;;;;0.40;0.40;;;10.10;64.30;;;;;;5056535;28;20228;-67
2022/12/24 03:06:59;;;;;;;0.40;0.40;;;10.20;37.30;;;;;;5036518;28;20223;-68
2022/12/24 03:09:37;;;;;;;0.40;0.40;;;10.20;49.80;;;;;;5034573;28;20200;-68
2022/12/24 03:12:15;;;;;;;0.40;0.40;;;10.20;42.10;;;;;;5036116;28;20608;-69
2022/12/24 03:14:43;;;;;;;0.40;0.40;;;10.10;57.30;;;;;;5018678;28;20289;-68
2022/12/24 03:17:11;;;;;;;0.40;0.40;;;10.10;52.00;;;;;;5035077;28;20604;-65
2022/12/24 03:19:38;;;;;;;0.40;0.40;;;10.10;48.40;;;;;;5036455;28;20397;-65
2022/12/24 03:22:09;;;;;;;0.40;0.40;;;10.00;65.90;;;;;;5033270;28;20274;-65
2022/12/24 03:24:37;;;;;;;0.40;0.40;;;10.00;54.40;;;;;;5037584;28;20187;-64
2022/12/24 03:27:07;;;;;;;0.40;0.40;;;10.00;50.40;;;;;;5036502;28;20626;-64
2022/12/24 03:29:34;;;;;;;0.40;0.40;;;9.90;71.50;;;;;;5035695;28;20639;-63
2022/12/24 03:32:03;;;;;;;0.40;0.40;;;9.90;66.60;;;;;;5018071;28;20214;-63
2022/12/24 03:34:30;;;;;;;0.40;0.40;;;9.90;71.70;;;;;;5053410;28;20249;-63
2022/12/24 03:36:57;;;;;;;0.40;0.40;;;9.90;74.40;;;;;;5032376;28;20195;-68
2022/12/24 03:39:24;;;;;;;0.40;0.40;;;10.00;75.20;;;;;;5035746;28;20203;-68
2022/12/24 03:41:51;;;;;;;0.40;0.40;;;10.00;59.70;;;;;;5035507;28;20283;-67
2022/12/24 03:44:18;;;;;;;0.40;0.40;;;10.00;49.50;;;;;;5017265;28;20617;-68
2022/12/24 03:46:45;;;;;;;0.40;0.40;;;10.00;55.60;;;;;;5034664;28;20223;-68
2022/12/24 03:49:12;;;;;;;0.40;0.40;;;10.00;54.00;;;;;;5050587;28;20196;-69
2022/12/24 03:51:39;;;;;;;0.47;0.47;;;10.00;51.80;;;;;;5037293;28;20191;-68
2022/12/24 03:54:06;;;;;;;0.50;0.50;;;9.90;72.60;;;;;;5034754;28;20286;-68
2022/12/24 03:56:33;;;;;;;0.40;0.40;;;10.00;51.10;;;;;;5038057;28;20223;-68
2022/12/24 03:59:00;;;;;;;0.40;0.40;;;9.90;61.90;;;;;;5035753;28;20745;-69
2022/12/24 04:01:27;;;;;;;0.40;0.40;;;9.90;57.40;;;;;;5016934;28;20227;-67
2022/12/24 04:03:54;;;;;;;0.40;0.40;;;9.90;68.10;;;;;;5034601;28;20228;-68
2022/12/24 04:06:21;;;;;;;0.40;0.40;;;9.80;76.70;;;;;;5033312;28;20211;-69
2022/12/24 04:08:48;;;;;;;0.40;0.40;;;9.80;77.90;;;;;;5035975;28;20266;-70
2022/12/24 04:11:17;;;;;;;0.40;0.40;;;9.80;66.00;;;;;;5036399;28;20187;-69
2022/12/24 04:13:44;;;;;;;0.40;0.40;;;9.70;84.30;;;;;;5017559;28;20259;-70
2022/12/24 04:16:14;;;;;;;0.40;0.40;;;9.60;93.20;;;;;;5034766;28;20279;-69
2022/12/24 04:18:42;;;;;;;0.40;0.40;;;9.50;99.90;;;;;;5017833;28;20208;-69
2022/12/24 04:21:10;;;;;;;0.40;0.40;;;9.50;99.90;;;;;;5032682;28;20208;-67
2022/12/24 04:23:39;;;;;;;0.40;0.40;;;9.40;99.90;;;;;;5034980;28;20744;-68
2022/12/24 04:26:08;;;;;;;0.40;0.40;;;9.60;99.90;;;;;;5035079;28;20247;-70
2022/12/24 04:28:37;;;;;;;0.40;0.40;;;9.70;99.90;;;;;;5031117;28;20188;-67
2022/12/24 04:31:08;;;;;;;0.40;0.40;;;9.70;99.90;;;;;;5034179;28;20203;-67
2022/12/24 04:33:35;;;;;;;0.40;0.40;;;9.80;98.10;;;;;;5036041;28;20212;-68
2022/12/24 04:36:04;;;;;;;0.40;0.40;;;9.90;91.00;;;;;;5033486;28;20314;-67
2022/12/24 04:38:32;;;;;;;0.40;0.40;;;9.90;93.00;;;;;;5032806;28;20207;-67
2022/12/24 04:41:04;;;;;;;0.40;0.40;;;9.90;90.40;;;;;;5037195;28;20315;-67
2022/12/24 04:43:31;;;;;;;0.40;0.40;;;9.90;94.50;;;;;;5020093;28;20231;-68
2022/12/24 04:46:09;;;;;;;0.40;0.40;;;9.90;99.90;;;;;;5050332;28;20274;-67
2022/12/24 04:48:37;;;;;;;0.40;0.40;;;9.90;99.90;;;;;;5030984;28;20184;-68
2022/12/24 04:51:05;;;;;;;0.50;0.50;;;9.90;99.90;;;;;;5036797;28;20202;-67
2022/12/24 04:53:32;;;;;;;0.40;0.40;;;9.80;99.90;;;;;;5037082;28;20502;-68
2022/12/24 04:55:59;;;;;;;0.40;0.40;;;9.90;99.90;;;;;;5036228;28;20666;-66
2022/12/24 04:58:26;;;;;;;0.40;0.40;;;9.90;99.90;;;;;;5037606;28;20208;-67
2022/12/24 05:00:54;;;;;;;0.40;0.40;;;9.90;99.90;;;;;;5039592;28;20203;-67
2022/12/24 05:03:21;;;;;;;0.40;0.40;;;9.90;99.90;;;;;;5041406;28;20749;-66
2022/12/24 05:05:48;;;;;;;0.47;0.47;;;9.90;99.90;;;;;;5057622;28;20218;-67
2022/12/24 05:08:15;;;;;;;0.40;0.40;;;9.80;99.90;;;;;;5037694;28;20256;-68
2022/12/24 05:10:42;;;;;;;0.40;0.40;;;9.80;99.90;;;;;;5057643;28;20709;-66
2022/12/24 05:13:09;;;;;;;0.40;0.40;;;9.80;99.90;;;;;;5058549;28;20203;-67
2022/12/24 05:15:36;;;;;;;0.40;0.40;;;9.80;99.90;;;;;;5057249;28;20191;-67
2022/12/24 05:18:03;;;;;;;0.40;0.40;;;9.80;99.90;;;;;;5059152;28;20204;-67
2022/12/24 05:20:30;;;;;;;0.40;0.40;;;9.80;99.90;;;;;;5025320;28;20702;-68
2022/12/24 05:28:28;;;;;;;0.40;0.40;;;9.90;99.90;;;;;;5058720;28;20183;-67
2022/12/24 05:30:55;;;;;;;0.40;0.40;;;9.90;99.90;;;;;;5039187;28;20198;-67
2022/12/24 05:33:22;;;;;;;0.40;0.40;;;9.90;99.90;;;;;;5037290;28;20202;-67
2022/12/24 05:35:51;;;;;;;0.40;0.40;;;9.90;99.90;;;;;;5056216;28;20730;-68
2022/12/24 05:38:18;;;;;;;0.40;0.40;;;9.90;99.90;;;;;;5058021;28;20195;-67
2022/12/24 05:40:45;;;;;;;0.40;0.40;;;9.90;99.90;;;;;;5059090;28;20216;-68
2022/12/24 05:43:12;;;;;;;0.40;0.40;;;10.00;99.90;;;;;;5055408;28;20281;-66
2022/12/24 05:45:39;;;;;;;0.40;0.40;;;10.00;99.90;;;;;;5022344;28;20286;-67
2022/12/24 05:48:07;;;;;;;0.50;0.50;;;10.00;99.90;;;;;;5055193;28;20194;-68
2022/12/24 05:50:35;;;;;;;0.40;0.40;;;10.00;99.90;;;;;;5056591;28;20199;-67
2022/12/24 05:53:06;;;;;;;0.40;0.40;;;10.00;99.90;;;;;;5039203;28;20208;-67
2022/12/24 05:55:33;;;;;;;0.40;0.40;;;9.90;99.90;;;;;;5056022;28;20689;-68
2022/12/24 05:58:00;;;;;;;0.40;0.40;;;9.90;99.90;;;;;;5038518;28;20202;-69
2022/12/24 06:00:27;;;;;;;0.40;0.40;;;9.90;99.90;;;;;;5056347;28;20290;-67
2022/12/24 06:02:54;;;;;;;0.40;0.40;;;9.90;99.90;;;;;;5058594;28;20211;-67
2022/12/24 06:05:21;;;;;;;0.40;0.40;;;9.90;99.90;;;;;;5040098;28;20394;-67
2022/12/24 06:07:48;;;;;;;0.40;0.40;;;9.90;99.90;;;;;;5040384;28;20214;-70
2022/12/24 06:10:15;;;;;;;0.40;0.40;;;10.00;99.90;;;;;;5057616;28;20720;-68
2022/12/24 06:12:42;;;;;;;0.40;0.40;;;10.00;99.90;;;;;;5037732;28;20217;-67
2022/12/24 06:15:09;;;;;;;0.40;0.40;;;10.00;99.90;;;;;;5038948;28;20523;-67
2022/12/24 06:17:36;;;;;;;0.40;0.40;;;10.00;99.90;;;;;;5022980;28;20198;-69
2022/12/24 06:20:04;;;;;;;0.40;0.40;;;10.00;99.90;;;;;;5056708;28;20203;-67
2022/12/24 06:22:31;;;;;;;0.40;0.40;;;10.00;99.90;;;;;;5038413;28;20203;-68
2022/12/24 06:24:58;;;;;;;0.40;0.40;;;10.10;99.90;;;;;;5058624;28;20266;-68
2022/12/24 06:27:25;;;;;;;0.40;0.40;;;10.00;99.90;;;;;;5058494;28;20667;-68
2022/12/24 06:29:52;;;;;;;0.40;0.40;;;10.00;99.90;;;;;;5040857;28;20179;-71
2022/12/24 06:32:19;;;;;;;0.40;0.40;;;10.10;99.90;;;;;;5056367;28;20254;-69
2022/12/24 06:34:46;;;;;;;0.40;0.40;;;10.00;99.90;;;;;;5055243;28;20270;-68
2022/12/24 06:37:17;;;;;;;0.40;0.40;;;10.00;99.90;;;;;;5037815;28;20195;-69
2022/12/24 06:39:45;;;;;;;0.40;0.40;;;10.00;99.90;;;;;;5057942;28;20191;-69
2022/12/24 06:42:13;;;;;;;0.40;0.40;;;10.10;99.90;;;;;;5056745;28;20684;-68
2022/12/24 06:44:40;;;;;;;0.40;0.40;;;10.10;99.90;;;;;;5055819;28;20191;-69
2022/12/24 06:47:07;;;;;;;0.40;0.40;;;10.10;99.90;;;;;;5035679;28;20199;-69
2022/12/24 06:49:33;;;;;;;0.40;0.40;;;10.00;99.90;;;;;;5056810;28;20191;-69
2022/12/24 06:52:00;;;;;;;0.40;0.40;;;10.00;99.90;;;;;;5037387;28;20691;-69
2022/12/24 06:54:27;;;;;;;0.40;0.40;;;10.00;99.90;;;;;;5057019;28;20222;-69
2022/12/24 06:56:54;;;;;;;0.40;0.40;;;10.00;99.90;;;;;;5039183;28;20910;-68
2022/12/24 06:59:23;;;;;;;0.40;0.40;;;9.90;99.90;;;;;;5039512;28;20203;-68
2022/12/24 07:01:50;;;;;;;0.40;0.40;;;9.90;99.90;;;;;;5056742;28;20575;-67
2022/12/24 07:04:17;;;;;;;0.40;0.40;;;9.90;99.90;;;;;;5020942;28;20235;-69
2022/12/24 07:06:46;;;;;;;0.40;0.40;;;9.90;99.90;;;;;;5055190;28;20209;-73
2022/12/24 07:09:13;;;;;;;0.40;0.40;;;9.90;99.90;;;;;;5054409;28;20187;-69
2022/12/24 07:11:40;;;;;;;0.40;0.40;;;9.90;99.90;;;;;;5055147;28;20192;-69
2022/12/24 07:14:07;;;;;;;0.40;0.40;;;9.90;99.90;;;;;;5031478;28;20203;-71
2022/12/24 07:16:34;;;;;;;0.40;0.40;;;9.90;99.90;;;;;;5034295;28;20736;-68
2022/12/24 07:19:02;;;;;;;0.40;0.40;;;9.90;99.90;;;;;;5039952;28;20286;-68
2022/12/24 07:21:28;;;;;;;0.40;0.40;;;10.00;99.90;;;;;;5038341;28;20368;-68
2022/12/24 07:23:55;;;;;;;0.40;0.40;;;9.90;99.90;;;;;;5038604;28;20282;-68
2022/12/24 07:26:22;;;;;;;0.40;0.40;;;10.00;99.90;;;;;;5054252;28;20244;-67
2022/12/24 07:28:49;;;;;;;0.40;0.40;;;9.90;99.90;;;;;;5056069;28;20221;-67
2022/12/24 07:31:16;;;;;;;0.40;0.40;;;10.00;99.90;;;;;;5056955;28;20198;-68
2022/12/24 07:33:44;;;;;;;0.40;0.40;;;10.00;99.90;;;;;;5038905;28;20241;-71
2022/12/24 07:36:18;;;;;;;0.40;0.40;;;10.00;99.90;;;;;;5054081;28;20232;-69
2022/12/24 07:38:45;;;;;;;0.40;0.40;;;10.00;99.90;;;;;;5037194;28;20221;-70
2022/12/24 07:41:12;;;;;;;0.40;0.40;;;10.10;99.90;;;;;;5021864;28;20216;-66
2022/12/24 07:43:39;;;;;;;0.40;0.40;;;10.10;99.90;;;;;;5056593;28;20192;-67
2022/12/24 07:46:07;;;;;;;0.53;0.53;;;10.10;99.90;;;;;;5052928;28;20193;-68
2022/12/24 07:48:37;;;;;;;0.40;0.40;;;10.10;99.90;;;;;;5056174;28;20195;-67
2022/12/24 07:51:04;;;;;;;0.40;0.40;;;10.10;99.90;;;;;;5037233;28;20199;-68
2022/12/24 07:53:31;;;;;;;0.40;0.40;;;10.20;99.90;;;;;;5055345;28;20273;-71
2022/12/24 07:55:58;;;;;;;0.40;0.40;;;10.20;99.90;;;;;;5054646;28;20218;-70
2022/12/24 07:58:26;;;;;;;0.50;0.50;;;10.20;99.90;;;;;;5056865;28;20303;-71
2022/12/24 08:00:59;;;;;;;0.60;0.60;;;10.20;99.90;;;;;;5059071;28;20254;-72
2022/12/24 08:03:27;;;;;;;0.40;0.40;;;10.30;96.60;;;;;;5038177;28;20781;-71
2022/12/24 08:05:54;;;;;;;0.40;0.40;;;10.30;98.80;;;;;;5037851;28;20203;-71
2022/12/24 08:08:21;;;;;;;0.40;0.40;;;10.20;99.90;;;;;;5039614;28;20704;-71
2022/12/24 08:10:48;;;;;;;0.40;0.40;;;10.10;99.90;;;;;;5040637;28;20245;-71
2022/12/24 08:13:15;;;;;;;0.40;0.40;;;10.00;99.90;;;;;;5059148;28;20223;-71
2022/12/24 08:15:43;;;;;;;0.40;0.40;;;10.00;99.90;;;;;;5056791;28;20230;-71
2022/12/24 08:18:11;;;;;;;0.40;0.40;;;10.10;99.90;;;;;;5056384;28;20257;-71
2022/12/24 08:20:39;;;;;;;0.40;0.40;;;10.10;99.90;;;;;;5037526;28;20199;-70
2022/12/24 08:23:07;;;;;;;0.40;0.40;;;10.10;99.90;;;;;;5033105;28;20195;-71
2022/12/24 08:25:35;;;;;;;0.40;0.40;;;10.00;99.90;;;;;;5043580;28;20220;-70
2022/12/24 08:28:02;;;;;;;0.40;0.40;;;10.10;99.90;;;;;;5060174;28;20198;-71
2022/12/24 08:30:29;;;;;;;0.40;0.40;;;10.10;99.90;;;;;;5042782;28;20236;-70
2022/12/24 08:32:56;;;;;;;0.40;0.40;;;10.10;99.90;;;;;;5060591;28;20325;-71
2022/12/24 08:35:23;;;;;;;0.40;0.40;;;10.20;99.90;;;;;;5039874;28;20179;-71
2022/12/24 08:37:50;;;;;;;0.40;0.40;;;10.20;99.90;;;;;;5041380;28;20191;-70
2022/12/24 08:40:17;;;;;;;8.27;7.73;;;10.30;89.70;;;;;;5059264;28;20248;-72
2022/12/24 08:42:44;;;;;;;0.40;0.40;;;10.40;48.30;;;;;;5043367;28;20234;-72
2022/12/24 08:45:11;;;;;;;0.40;0.40;;;10.40;34.60;;;;;;5059294;28;20198;-70
2022/12/24 08:47:38;;;;;;;0.30;0.30;;;10.40;41.50;;;;;;5059824;28;20191;-71
2022/12/24 08:50:06;;;;;;;0.40;0.40;;;10.40;40.20;;;;;;5029248;28;20531;-71
2022/12/24 08:52:33;;;;;;;0.40;0.40;;;10.50;17.40;;;;;;5037318;28;20264;-71
2022/12/24 08:55:00;;;;;;;0.40;0.40;;;10.50;3.30;;;;;;5059778;28;20203;-69
2022/12/24 08:57:27;;;;;;;0.33;0.33;;;10.50;2.10;;;;;;5056140;28;20555;-71
2022/12/24 08:59:54;;;;;;;0.40;0.40;;;10.50;1.00;;;;;;5033745;28;20211;-71
2022/12/24 09:02:21;;;;;;;0.40;0.40;;;10.60;1.00;;;;;;5043210;28;20229;-71
2022/12/24 09:04:48;;;;;;;0.40;0.40;;;10.60;1.00;;;;;;5058272;28;20662;-71
2022/12/24 09:07:15;;;;;;;0.40;0.40;;;10.60;1.00;;;;;;5034406;28;20199;-70
2022/12/24 09:09:42;;;;;;;0.40;0.40;;;10.60;1.00;;;;;;5025885;28;21160;-71
2022/12/24 09:12:09;;;;;;;0.80;0.80;;;10.50;1.00;;;;;;5043671;28;20232;-72
2022/12/24 09:14:36;;;;;;;0.40;0.40;;;10.60;1.00;;;;;;5042807;28;20203;-70
2022/12/24 09:17:03;;;;;;;0.40;0.40;;;10.50;1.00;;;;;;5040993;28;20627;-74
2022/12/24 09:19:32;;;;;;;0.40;0.40;;;10.60;1.00;;;;;;5041185;28;20264;-70
2022/12/24 09:21:59;;;;;;;0.40;0.40;;;10.60;1.00;;;;;;5058615;28;20732;-70
2022/12/24 09:24:26;;;;;;;0.40;0.40;;;10.70;1.00;;;;;;5042301;28;20744;-70
2022/12/24 09:26:53;;;;;;;0.40;0.40;;;10.80;1.00;;;;;;5040706;28;20226;-71
2022/12/24 09:29:24;;;;;;;0.40;0.40;;;10.80;1.00;;;;;;5060056;28;20192;-71
2022/12/24 09:31:51;;;;;;;0.40;0.40;;;10.80;1.00;;;;;;5058620;28;20227;-71
2022/12/24 09:34:18;;;;;;;0.40;0.40;;;10.80;1.00;;;;;;5041657;28;20635;-70
2022/12/24 09:36:53;;;;;;;0.40;0.40;;;10.80;1.00;;;;;;5024760;28;20207;-70
2022/12/24 09:39:19;;;;;;;0.37;0.37;;;10.80;1.00;;;;;;5041621;28;20188;-71
2022/12/24 09:42:06;;;;;;;0.40;0.40;;;10.70;1.00;;;;;;5040341;28;20652;-71
2022/12/24 09:44:50;;;;;;;0.40;0.40;;;10.70;1.00;;;;;;5025489;28;20187;-70
2022/12/24 09:47:30;;;;;;;0.40;0.40;;;10.80;1.00;;;;;;5055956;28;20191;-70
2022/12/24 09:50:01;;;;;;;0.40;0.40;;;11.00;1.00;;;;;;5042383;28;20248;-70
2022/12/24 09:52:40;;;;;;;0.40;0.40;;;11.10;1.00;;;;;;5055365;28;20585;-70
2022/12/24 09:55:24;;;;;;;0.40;0.40;;;11.10;1.00;;;;;;5057008;28;20793;-70
2022/12/24 09:57:52;;;;;;;0.40;0.40;;;11.00;1.00;;;;;;5033878;28;20203;-70
2022/12/24 10:00:21;;;;;;;0.40;0.40;;;11.00;1.00;;;;;;5038797;28;20297;-70
2022/12/24 10:02:48;;;;;;;0.40;0.40;;;11.00;1.00;;;;;;5056490;28;20593;-71
2022/12/24 10:05:22;;;;;;;0.40;0.40;;;11.00;1.00;;;;;;5022435;28;20219;-70
2022/12/24 10:08:22;;;;;;;0.40;0.40;;;11.10;1.00;;;;;;5027841;28;20223;-71
2022/12/24 10:10:57;;;;;;;0.40;0.40;;;11.20;1.00;;;;;;5005918;28;20299;-70
2022/12/24 10:14:26;;;;;;;0.40;0.40;;;12.20;1.00;;;;;;5054319;28;20191;-71
2022/12/24 10:17:11;;;;;;;0.20;0.20;;;14.30;1.00;;;;;;4923451;28;20617;-74
2022/12/24 10:20:19;;;;;;;0.30;0.30;;;13.20;1.00;;;;;;5036417;28;20275;-71
2022/12/24 10:23:14;;;;;;;0.40;0.40;;;12.40;1.00;;;;;;4941017;28;20368;-70
2022/12/24 10:26:05;;;;;;;0.40;0.40;;;12.40;1.00;;;;;;4971853;28;20234;-72
2022/12/24 10:28:42;;;;;;;0.40;0.40;;;11.90;1.00;;;;;;5008027;28;20277;-72
2022/12/24 10:31:10;;;;;;;0.40;0.40;;;11.90;1.00;;;;;;5038461;28;20196;-71
2022/12/24 10:33:42;;;;;;;0.20;0.20;;;11.70;1.00;;;;;;5004982;28;20988;-71
2022/12/24 10:36:17;;;;;;;0.40;0.40;;;11.40;1.00;;;;;;5034764;28;20518;-71
2022/12/24 10:38:45;;;;;;;0.40;0.40;;;11.30;1.00;;;;;;5022193;28;20486;-71
2022/12/24 10:41:14;;;;;;;0.40;0.40;;;11.30;1.00;;;;;;5038415;28;20262;-71
2022/12/24 10:43:43;;;;;;;0.30;0.30;;;11.50;1.00;;;;;;5039704;28;20420;-71
2022/12/24 10:46:21;;;;;;;0.40;0.40;;;12.20;1.00;;;;;;5034416;28;20667;-71
2022/12/24 10:48:51;;;;;;;0.30;0.30;;;12.30;1.00;;;;;;5037983;28;20203;-71
2022/12/24 10:51:32;;;;;;;0.40;0.40;;;12.30;1.00;;;;;;5038134;28;20214;-71
2022/12/24 10:54:14;;;;;;;0.40;0.40;;;12.10;1.00;;;;;;5035860;28;20286;-71
2022/12/24 10:56:59;;;;;;;0.40;0.40;;;11.80;1.00;;;;;;5049316;28;20267;-71
2022/12/24 10:59:29;;;;;;;0.30;0.30;;;11.80;1.00;;;;;;5038051;28;20195;-71
2022/12/24 11:01:57;;;;;;;0.40;0.40;;;11.70;1.00;;;;;;5034663;28;20760;-71
2022/12/24 11:04:27;;;;;;;0.63;0.63;;;11.70;1.00;;;;;;5030866;28;20243;-72
2022/12/24 11:07:05;;;;;;;0.30;0.30;;;11.60;1.00;;;;;;5034383;28;20207;-71
2022/12/24 11:09:42;;;;;;;0.30;0.30;;;11.70;1.00;;;;;;5035913;28;20179;-74
2022/12/24 11:12:22;;;;;;;0.37;0.37;;;12.10;1.00;;;;;;5050985;28;20225;-73
2022/12/24 11:15:00;;;;;;;0.40;0.40;;;13.20;1.00;;;;;;5034635;28;20196;-71
2022/12/24 11:17:27;;;;;;;0.30;0.30;;;13.00;1.00;;;;;;5051137;28;20196;-73
2022/12/24 11:19:54;;;;;;;0.40;0.40;;;13.50;1.00;;;;;;5033554;28;20288;-70
2022/12/24 11:22:28;;;;;;;0.40;0.40;;;13.70;1.00;;;;;;5036849;28;20672;-70
2022/12/24 11:25:17;;;;;;;0.30;0.30;;;13.40;1.00;;;;;;5033905;28;20721;-70
2022/12/24 11:27:50;;;;;;;0.30;0.30;;;12.70;1.00;;;;;;5033725;28;20251;-70
2022/12/24 11:30:29;;;;;;;0.40;0.40;;;12.00;1.00;;;;;;5033854;28;20578;-73
2022/12/24 11:32:59;;;;;;;0.33;0.33;;;12.00;1.00;;;;;;5034456;28;20200;-72
2022/12/24 11:35:28;;;;;;;0.37;0.37;;;12.10;1.00;;;;;;5050801;28;20721;-71
2022/12/24 11:38:04;;;;;;;0.30;0.30;;;12.20;1.00;;;;;;5021466;28;20214;-71
2022/12/24 11:40:44;;;;;;;0.30;0.30;;;12.20;1.00;;;;;;5038035;28;20559;-72
2022/12/24 11:43:16;;;;;;;0.40;0.40;;;11.90;1.00;;;;;;5034667;28;20207;-71
2022/12/24 11:45:53;;;;;;;0.40;0.40;;;11.80;1.00;;;;;;5038024;28;20199;-70
2022/12/24 11:48:32;;;;;;;0.30;0.30;;;11.70;1.00;;;;;;5037607;28;20871;-72
2022/12/24 11:51:04;;;;;;;0.40;0.40;;;11.70;1.00;;;;;;5033867;28;20318;-71
2022/12/24 11:53:46;;;;;;;0.40;0.40;;;11.80;1.00;;;;;;5037646;28;20195;-71
2022/12/24 11:56:41;;;;;;;0.40;0.40;;;11.80;1.00;;;;;;5021124;28;20203;-70
2022/12/24 11:59:32;;;;;;;0.40;0.40;;;11.70;1.00;;;;;;5039097;28;20238;-71
2022/12/24 12:02:14;;;;;;;0.40;0.40;;;11.70;1.00;;;;;;5024214;28;20430;-70
2022/12/24 12:04:43;;;;;;;0.40;0.40;;;11.60;1.00;;;;;;5053959;28;20241;-70
2022/12/24 12:07:14;;;;;;;0.40;0.40;;;11.50;1.00;;;;;;5060437;28;20196;-72
2022/12/24 12:10:04;;;;;;;0.30;0.30;;;11.40;1.00;;;;;;5061806;28;20647;-75
2022/12/24 12:12:35;;;;;;;0.40;0.40;;;11.40;1.00;;;;;;5043053;28;20305;-70
2022/12/24 12:15:24;;;;;;;0.40;0.40;;;11.40;1.00;;;;;;5061336;28;20207;-71
2022/12/24 12:18:23;;;;;;;0.40;0.40;;;11.40;1.00;;;;;;5057710;28;20188;-69
2022/12/24 12:21:00;;;;;;;0.40;0.40;;;11.40;1.00;;;;;;5026387;28;20211;-70
2022/12/24 12:23:32;;;;;;;0.90;0.90;;;11.40;1.00;;;;;;5059513;28;20207;-69
2022/12/24 12:26:13;;;;;;;0.30;0.30;;;11.50;1.00;;;;;;5043081;28;20222;-70
2022/12/24 12:28:56;;;;;;;0.30;0.30;;;11.60;1.00;;;;;;5045690;28;20219;-69
2022/12/24 12:31:32;;;;;;;0.30;0.30;;;11.60;1.00;;;;;;5043910;28;20430;-68
2022/12/24 12:34:15;;;;;;;0.30;0.30;;;11.60;1.00;;;;;;5044775;28;20606;-69
2022/12/24 12:36:53;;;;;;;0.40;0.40;;;11.60;1.00;;;;;;5025876;28;20199;-69
2022/12/24 12:39:20;;;;;;;0.40;0.40;;;11.60;1.00;;;;;;5059224;28;20222;-70
2022/12/24 12:42:02;;;;;;;0.40;0.40;;;11.60;1.00;;;;;;5042701;28;20227;-70
2022/12/24 12:44:52;;;;;;;10.70;5.30;;;11.50;1.00;;;;;;5042409;28;20207;-68
2022/12/24 12:48:00;;;;;;;1.03;1.03;;;11.40;1.00;;;;;;5028867;28;20194;-69
2022/12/24 12:50:47;;;;;;;0.30;0.30;;;11.60;1.00;;;;;;5005313;28;20198;-71
2022/12/24 12:53:23;;;;;;;0.40;0.40;;;11.70;1.00;;;;;;5062377;28;20215;-70
2022/12/24 12:56:12;;;;;;;0.33;0.33;;;12.00;1.00;;;;;;5042259;28;20502;-70
2022/12/24 12:58:57;;;;;;;0.40;0.40;;;12.20;1.00;;;;;;5045508;28;20203;-71
2022/12/24 13:01:39;;;;;;;0.40;0.40;;;12.20;1.00;;;;;;5062588;28;20187;-71
2022/12/24 13:04:28;;;;;;;0.40;0.40;;;12.10;1.00;;;;;;5042996;28;20277;-70
2022/12/24 13:07:21;;;;;;;0.40;0.40;;;11.90;1.00;;;;;;5042322;28;20246;-71
2022/12/24 13:10:02;;;;;;;0.40;0.40;;;11.60;1.00;;;;;;5061116;28;20191;-70
2022/12/24 13:12:56;;;;;;;0.60;0.60;;;11.60;1.00;;;;;;5061767;28;20293;-71
2022/12/24 13:15:40;;;;;;;28.17;9.37;;;11.60;1.00;;;;;;5058485;28;20306;-70
2022/12/24 13:18:19;;;;;;;37.43;9.57;;;11.70;1.00;;;;;;5027139;28;20215;-70
2022/12/24 13:20:49;;;;;;;28.70;9.07;;;11.70;1.00;;;;;;5043554;28;20226;-71
2022/12/24 13:23:21;;;;;;;39.80;9.43;;;11.70;1.00;;;;;;5042963;28;20260;-70
2022/12/24 13:25:51;;;;;;;23.13;7.83;;;11.70;1.00;;;;;;5024091;28;20202;-70